createdAt,value
2022-10-19T00:00:56.252Z,483.1
2022-10-19T00:01:58.406Z,482.9
2022-10-19T00:03:00.071Z,482.8
2022-10-19T00:04:09.395Z,482.9
2022-10-19T00:05:10.980Z,482.7
2022-10-19T00:06:12.619Z,482.8
2022-10-19T00:07:14.166Z,482.9
2022-10-19T00:08:15.708Z,482.9
2022-10-19T00:09:17.258Z,483
2022-10-19T00:10:18.847Z,483.2
2022-10-19T00:11:20.419Z,483.2
2022-10-19T00:12:21.945Z,483.3
2022-10-19T00:13:23.527Z,483.5
2022-10-19T00:14:25.068Z,483.9
2022-10-19T00:15:26.611Z,484.3
2022-10-19T00:16:28.223Z,484.3
2022-10-19T00:17:29.899Z,484.1
2022-10-19T00:18:31.518Z,484.3
2022-10-19T00:19:33.084Z,484.6
2022-10-19T00:20:34.634Z,484.3
2022-10-19T00:21:36.227Z,484.5
2022-10-19T00:22:37.770Z,484.7
2022-10-19T00:23:39.304Z,484.5
2022-10-19T00:24:40.850Z,484.6
2022-10-19T00:25:42.443Z,484.7
2022-10-19T00:26:43.997Z,485.1
2022-10-19T00:27:45.545Z,485.4
2022-10-19T00:28:47.588Z,485
2022-10-19T00:29:49.155Z,485.3
2022-10-19T00:30:50.837Z,485.5
2022-10-19T00:31:52.391Z,485.4
2022-10-19T00:32:54.043Z,485.5
2022-10-19T00:33:55.607Z,485.9
2022-10-19T00:34:57.149Z,485.7
2022-10-19T00:35:58.741Z,486.2
2022-10-19T00:37:00.296Z,486.2
2022-10-19T00:38:01.838Z,486.3
2022-10-19T00:39:03.380Z,486.8
2022-10-19T00:40:04.932Z,487
2022-10-19T00:41:06.568Z,487.2
2022-10-19T00:42:08.119Z,487.4
2022-10-19T00:43:09.668Z,487.6
2022-10-19T00:44:11.292Z,487.4
2022-10-19T00:45:12.826Z,488.2
2022-10-19T00:46:14.403Z,488
2022-10-19T00:47:16.006Z,488.2
2022-10-19T00:48:17.638Z,488.7
2022-10-19T00:49:19.228Z,488.9
2022-10-19T00:50:20.766Z,488.8
2022-10-19T00:51:22.378Z,489.1
2022-10-19T00:52:23.974Z,489.2
2022-10-19T00:53:25.514Z,489.5
2022-10-19T00:54:27.083Z,489.5
2022-10-19T00:55:28.631Z,489.4
2022-10-19T00:56:30.181Z,489.7
2022-10-19T00:57:31.813Z,489.6
2022-10-19T00:58:33.349Z,489.6
2022-10-19T00:59:34.904Z,489.4
2022-10-19T01:00:36.435Z,489.5
2022-10-19T01:01:38.070Z,489.6
2022-10-19T01:02:39.608Z,489.6
2022-10-19T01:03:41.242Z,489.9
2022-10-19T01:04:42.780Z,489.6
2022-10-19T01:05:44.306Z,489.8
2022-10-19T01:06:46.075Z,490
2022-10-19T01:07:47.690Z,489.9
2022-10-19T01:08:49.237Z,490
2022-10-19T01:09:50.774Z,490.2
2022-10-19T01:10:52.307Z,490.2
2022-10-19T01:11:53.861Z,490.6
2022-10-19T01:12:55.453Z,491.1
2022-10-19T01:13:57.010Z,490.9
2022-10-19T01:14:58.615Z,490.8
2022-10-19T01:16:00.385Z,491
2022-10-19T01:17:01.956Z,491
2022-10-19T01:18:03.499Z,491.2
2022-10-19T01:19:05.146Z,491.3
2022-10-19T01:20:06.758Z,491.3
2022-10-19T01:21:08.312Z,491.5
2022-10-19T01:22:09.850Z,491.4
2022-10-19T01:23:11.386Z,491.6
2022-10-19T01:24:12.943Z,491.7
2022-10-19T01:25:14.543Z,491.7
2022-10-19T01:26:16.089Z,491.4
2022-10-19T01:27:17.645Z,491.8
2022-10-19T01:28:19.151Z,491.9
2022-10-19T01:29:20.678Z,491.9
2022-10-19T01:30:22.269Z,492
2022-10-19T01:31:23.806Z,492.1
2022-10-19T01:32:25.355Z,492.2
2022-10-19T01:33:26.891Z,492.4
2022-10-19T01:34:28.540Z,492.1
2022-10-19T01:35:30.114Z,492.5
2022-10-19T01:36:31.686Z,492.5
2022-10-19T01:37:35.148Z,492.4
2022-10-19T01:38:37.046Z,492.9
2022-10-19T01:39:38.587Z,492.9
2022-10-19T01:40:40.186Z,492.9
2022-10-19T01:41:41.715Z,493
2022-10-19T01:42:43.526Z,493.1
2022-10-19T01:43:45.253Z,493.3
2022-10-19T01:44:46.804Z,493.3
2022-10-19T01:45:48.340Z,493.5
2022-10-19T01:46:49.937Z,493.7
2022-10-19T01:47:51.484Z,493.3
2022-10-19T01:48:53.046Z,493.4
2022-10-19T01:49:54.693Z,493.6
2022-10-19T01:50:56.248Z,493.2
2022-10-19T01:53:00.422Z,493.4
2022-10-19T01:54:01.973Z,493.6
2022-10-19T01:55:03.530Z,493.4
2022-10-19T01:56:05.075Z,493.4
2022-10-19T01:57:06.610Z,493.4
2022-10-19T01:58:10.118Z,493.4
2022-10-19T01:59:11.709Z,493.6
2022-10-19T02:00:13.271Z,493.8
2022-10-19T02:01:14.962Z,493.6
2022-10-19T02:02:16.568Z,493.9
2022-10-19T02:03:18.123Z,493.9
2022-10-19T02:04:19.665Z,493.9
2022-10-19T02:05:21.323Z,493.8
2022-10-19T02:06:22.906Z,493.9
2022-10-19T02:07:24.450Z,493.7
2022-10-19T02:08:26.039Z,493.6
2022-10-19T02:09:27.655Z,493.7
2022-10-19T02:10:29.192Z,493.7
2022-10-19T02:11:30.740Z,493.9
2022-10-19T02:12:34.522Z,493.9
2022-10-19T02:13:36.545Z,493.9
2022-10-19T02:14:38.062Z,494
2022-10-19T02:15:39.612Z,494
2022-10-19T02:16:41.743Z,494.1
2022-10-19T02:17:43.476Z,494.1
2022-10-19T02:18:45.067Z,494.1
2022-10-19T02:19:46.602Z,494.1
2022-10-19T02:20:48.230Z,494.1
2022-10-19T02:21:49.817Z,494.2
2022-10-19T02:22:52.090Z,494.3
2022-10-19T02:23:54.840Z,494.2
2022-10-19T02:24:56.449Z,494.4
2022-10-19T02:25:58.002Z,494.2
2022-10-19T02:27:02.303Z,494.1
2022-10-19T02:28:03.911Z,494.2
2022-10-19T02:29:05.532Z,494.3
2022-10-19T02:30:07.061Z,494.2
2022-10-19T02:31:08.597Z,494.2
2022-10-19T02:32:10.190Z,494.5
2022-10-19T02:33:11.751Z,494.3
2022-10-19T02:34:13.335Z,494.4
2022-10-19T02:35:14.890Z,494.5
2022-10-19T02:36:16.529Z,494.7
2022-10-19T02:37:26.200Z,494.6
2022-10-19T02:38:30.748Z,494.6
2022-10-19T02:39:32.336Z,494.8
2022-10-19T02:40:33.883Z,494.8
2022-10-19T02:41:35.422Z,494.7
2022-10-19T02:42:37.540Z,494.7
2022-10-19T02:43:39.075Z,495
2022-10-19T02:44:40.673Z,494.4
2022-10-19T02:45:42.177Z,494.7
2022-10-19T02:46:43.756Z,494.7
2022-10-19T02:47:45.314Z,494.7
2022-10-19T02:48:46.859Z,494.8
2022-10-19T02:49:48.420Z,494.8
2022-10-19T02:50:49.966Z,494.9
2022-10-19T02:51:51.594Z,495.1
2022-10-19T02:52:53.180Z,495.2
2022-10-19T02:53:54.738Z,495.5
2022-10-19T02:54:56.347Z,495.4
2022-10-19T02:55:57.866Z,495.5
2022-10-19T02:56:59.431Z,495.6
2022-10-19T02:58:01.006Z,496.3
2022-10-19T02:59:02.543Z,496
2022-10-19T03:00:04.185Z,495.9
2022-10-19T03:01:06.038Z,496
2022-10-19T03:02:07.626Z,496.3
2022-10-19T03:03:09.242Z,496.3
2022-10-19T03:04:10.767Z,496.5
2022-10-19T03:05:12.317Z,496.3
2022-10-19T03:06:13.848Z,496.5
2022-10-19T03:07:15.478Z,496.3
2022-10-19T03:08:17.050Z,496.7
2022-10-19T03:09:18.685Z,496.7
2022-10-19T03:10:20.236Z,496.7
2022-10-19T03:11:21.775Z,496.6
2022-10-19T03:12:23.458Z,496.3
2022-10-19T03:13:25.007Z,496.2
2022-10-19T03:14:26.556Z,496.1
2022-10-19T03:15:28.123Z,495.8
2022-10-19T03:16:29.671Z,495.8
2022-10-19T03:17:32.817Z,495.5
2022-10-19T03:18:34.718Z,495.4
2022-10-19T03:19:36.252Z,495.3
2022-10-19T03:20:37.807Z,495.1
2022-10-19T03:21:39.349Z,495.2
2022-10-19T03:22:41.544Z,495
2022-10-19T03:23:43.186Z,494.8
2022-10-19T03:24:44.723Z,495
2022-10-19T03:25:46.298Z,494.7
2022-10-19T03:26:47.842Z,494.9
2022-10-19T03:27:49.437Z,494.8
2022-10-19T03:28:51.178Z,494.9
2022-10-19T03:29:52.743Z,494.9
2022-10-19T03:30:54.293Z,494.6
2022-10-19T03:31:55.890Z,494.7
2022-10-19T03:32:57.430Z,494.6
2022-10-19T03:33:58.969Z,494.6
2022-10-19T03:35:00.567Z,494.6
2022-10-19T03:36:02.103Z,494.8
2022-10-19T03:37:03.688Z,494.7
2022-10-19T03:38:05.338Z,494.8
2022-10-19T03:39:06.875Z,495
2022-10-19T03:40:08.418Z,494.8
2022-10-19T03:41:10.040Z,494.7
2022-10-19T03:42:11.623Z,494.9
2022-10-19T03:43:13.168Z,495.3
2022-10-19T03:44:14.730Z,495.1
2022-10-19T03:45:16.348Z,495.1
2022-10-19T03:46:17.913Z,495.5
2022-10-19T03:47:19.917Z,495.8
2022-10-19T03:48:21.463Z,495.7
2022-10-19T03:49:23.205Z,496
2022-10-19T03:50:24.740Z,495.7
2022-10-19T03:51:26.290Z,495.8
2022-10-19T03:52:27.889Z,495.9
2022-10-19T03:53:33.647Z,496
2022-10-19T03:54:35.172Z,496.5
2022-10-19T03:55:36.757Z,496.3
2022-10-19T03:56:38.337Z,496.7
2022-10-19T03:57:39.896Z,496.8
2022-10-19T03:58:41.429Z,496.8
2022-10-19T03:59:42.994Z,496.8
2022-10-19T04:00:44.761Z,496.9
2022-10-19T04:01:46.346Z,496.8
2022-10-19T04:02:47.909Z,496.9
2022-10-19T04:03:49.451Z,496.8
2022-10-19T04:04:51.022Z,496.9
2022-10-19T04:05:52.572Z,496.4
2022-10-19T04:06:54.149Z,496.6
2022-10-19T04:07:55.674Z,496.7
2022-10-19T04:08:57.389Z,496.6
2022-10-19T04:09:58.979Z,496.6
2022-10-19T04:11:00.523Z,496.1
2022-10-19T04:12:02.142Z,496.2
2022-10-19T04:13:03.664Z,496.2
2022-10-19T04:14:05.666Z,496.2
2022-10-19T04:15:07.230Z,496.2
2022-10-19T04:16:08.842Z,496.5
2022-10-19T04:17:10.409Z,496.5
2022-10-19T04:18:11.957Z,496.6
2022-10-19T04:19:13.801Z,496.6
2022-10-19T04:20:15.366Z,496.8
2022-10-19T04:21:17.012Z,497.3
2022-10-19T04:22:18.558Z,497.6
2022-10-19T04:23:20.188Z,497.3
2022-10-19T04:24:21.833Z,497.4
2022-10-19T04:25:23.442Z,497.6
2022-10-19T04:26:25.020Z,497.9
2022-10-19T04:27:26.583Z,498.3
2022-10-19T04:28:28.525Z,498
2022-10-19T04:29:31.303Z,498.2
2022-10-19T04:30:35.886Z,498.4
2022-10-19T04:31:37.455Z,498.3
2022-10-19T04:32:39.016Z,498.2
2022-10-19T04:33:41.086Z,498.4
2022-10-19T04:34:42.799Z,498.4
2022-10-19T04:35:44.328Z,498.4
2022-10-19T04:36:45.894Z,497.9
2022-10-19T04:37:47.485Z,498.2
2022-10-19T04:38:49.029Z,498.1
2022-10-19T04:39:50.743Z,498.3
2022-10-19T04:40:52.299Z,498.3
2022-10-19T04:41:53.839Z,498.4
2022-10-19T04:42:55.419Z,498.3
2022-10-19T04:43:56.981Z,498.3
2022-10-19T04:44:58.648Z,498.4
2022-10-19T04:46:00.184Z,498.3
2022-10-19T04:47:01.720Z,497.9
2022-10-19T04:48:03.343Z,498.2
2022-10-19T04:49:04.884Z,498.1
2022-10-19T04:50:06.438Z,498.1
2022-10-19T04:51:07.959Z,497.9
2022-10-19T04:52:09.504Z,497.5
2022-10-19T04:53:11.388Z,497.9
2022-10-19T04:54:12.925Z,497.6
2022-10-19T04:55:14.570Z,497.5
2022-10-19T04:56:16.153Z,497.7
2022-10-19T04:57:17.961Z,497.9
2022-10-19T04:58:19.520Z,497.6
2022-10-19T04:59:21.131Z,497.9
2022-10-19T05:00:22.688Z,497.7
2022-10-19T05:01:24.707Z,497.6
2022-10-19T05:02:26.392Z,497.8
2022-10-19T05:03:27.938Z,497.7
2022-10-19T05:04:29.492Z,497.9
2022-10-19T05:05:31.034Z,498
2022-10-19T05:06:32.649Z,497.9
2022-10-19T05:07:35.781Z,497.9
2022-10-19T05:08:37.414Z,497.9
2022-10-19T05:09:38.952Z,497.8
2022-10-19T05:10:48.153Z,497.6
2022-10-19T05:11:49.824Z,497.9
2022-10-19T05:12:51.374Z,497.9
2022-10-19T05:13:52.928Z,497.7
2022-10-19T05:14:54.466Z,497.9
2022-10-19T05:15:56.016Z,497.9
2022-10-19T05:16:57.588Z,498.2
2022-10-19T05:17:59.132Z,497.7
2022-10-19T05:19:00.717Z,498.2
2022-10-19T05:20:02.290Z,498.1
2022-10-19T05:21:03.902Z,498.2
2022-10-19T05:22:05.540Z,498.1
2022-10-19T05:23:07.809Z,498.4
2022-10-19T05:24:09.350Z,498.4
2022-10-19T05:25:10.903Z,498.4
2022-10-19T05:26:12.556Z,498.3
2022-10-19T05:27:14.093Z,498.5
2022-10-19T05:28:15.636Z,498.7
2022-10-19T05:29:17.214Z,498.7
2022-10-19T05:30:18.747Z,498.6
2022-10-19T05:31:20.389Z,498.9
2022-10-19T05:32:21.958Z,498.7
2022-10-19T05:33:23.482Z,498.5
2022-10-19T05:34:25.108Z,498.3
2022-10-19T05:35:26.662Z,498.2
2022-10-19T05:36:28.270Z,498.1
2022-10-19T05:37:29.829Z,497.6
2022-10-19T05:38:31.394Z,497.8
2022-10-19T05:39:32.982Z,497.8
2022-10-19T05:40:34.531Z,497.9
2022-10-19T05:41:36.195Z,498.1
2022-10-19T05:42:37.737Z,498
2022-10-19T05:43:39.271Z,497.9
2022-10-19T05:44:41.329Z,498.3
2022-10-19T05:45:42.870Z,498
2022-10-19T05:46:44.592Z,498
2022-10-19T05:47:46.155Z,498
2022-10-19T05:48:47.754Z,497.8
2022-10-19T05:49:49.290Z,497.9
2022-10-19T05:50:50.829Z,497.9
2022-10-19T05:51:52.378Z,498
2022-10-19T05:52:53.975Z,497.8
2022-10-19T05:53:55.549Z,497.7
2022-10-19T05:54:57.143Z,498
2022-10-19T05:55:58.691Z,498.3
2022-10-19T05:57:00.379Z,498.2
2022-10-19T05:58:01.928Z,498.4
2022-10-19T05:59:03.517Z,498.6
2022-10-19T06:00:05.073Z,498.1
2022-10-19T06:01:06.625Z,498.5
2022-10-19T06:02:08.520Z,498.5
2022-10-19T06:03:10.112Z,498.1
2022-10-19T06:04:11.929Z,498
2022-10-19T06:05:13.519Z,498
2022-10-19T06:06:15.096Z,497.9
2022-10-19T06:07:16.678Z,497.7
2022-10-19T06:08:18.241Z,498
2022-10-19T06:09:19.797Z,498.1
2022-10-19T06:10:21.402Z,497.7
2022-10-19T06:11:22.965Z,497.5
2022-10-19T06:12:25.740Z,497.3
2022-10-19T06:13:27.379Z,497.6
2022-10-19T06:14:29.036Z,497.4
2022-10-19T06:15:30.644Z,497.5
2022-10-19T06:16:32.195Z,497.3
2022-10-19T06:17:35.455Z,497.4
2022-10-19T06:18:37.488Z,497.3
2022-10-19T06:19:39.029Z,496.9
2022-10-19T06:20:40.642Z,496.7
2022-10-19T06:21:46.482Z,496.9
2022-10-19T06:22:48.021Z,496.5
2022-10-19T06:23:49.644Z,496.2
2022-10-19T06:24:51.252Z,496.2
2022-10-19T06:25:52.799Z,496.3
2022-10-19T06:26:54.350Z,496
2022-10-19T06:27:56.214Z,495.7
2022-10-19T06:28:57.844Z,495.6
2022-10-19T06:29:59.462Z,495.8
2022-10-19T06:31:01.477Z,495.7
2022-10-19T06:32:06.199Z,495.8
2022-10-19T06:33:07.830Z,496
2022-10-19T06:34:09.950Z,495.8
2022-10-19T06:35:11.534Z,495.4
2022-10-19T06:36:13.076Z,495.4
2022-10-19T06:37:14.631Z,495.4
2022-10-19T06:38:16.208Z,496
2022-10-19T06:39:17.780Z,495.7
2022-10-19T06:40:19.792Z,495.7
2022-10-19T06:41:21.336Z,495.8
2022-10-19T06:42:22.919Z,496.1
2022-10-19T06:43:24.582Z,495.8
2022-10-19T06:44:26.200Z,495.9
2022-10-19T06:45:36.378Z,496.2
2022-10-19T06:46:37.939Z,496.3
2022-10-19T06:47:40.184Z,496.3
2022-10-19T06:48:41.740Z,496.3
2022-10-19T06:49:43.300Z,496.3
2022-10-19T06:50:44.841Z,496
2022-10-19T06:51:46.392Z,496.4
2022-10-19T06:52:47.961Z,496.8
2022-10-19T06:53:57.864Z,496.7
2022-10-19T06:54:59.446Z,497.1
2022-10-19T06:56:01.141Z,497.1
2022-10-19T06:57:02.726Z,497.1
2022-10-19T06:58:04.622Z,497.1
2022-10-19T06:59:06.321Z,497.3
2022-10-19T07:00:08.605Z,497.6
2022-10-19T07:01:10.751Z,497.6
2022-10-19T07:02:12.458Z,497.8
2022-10-19T07:03:14.046Z,498.1
2022-10-19T07:04:15.648Z,498.5
2022-10-19T07:05:17.233Z,498.4
2022-10-19T07:06:18.781Z,498.7
2022-10-19T07:07:20.382Z,498.5
2022-10-19T07:08:21.977Z,498.5
2022-10-19T07:09:23.570Z,498.7
2022-10-19T07:10:25.454Z,498.6
2022-10-19T07:11:27.118Z,498.8
2022-10-19T07:12:28.693Z,498.7
2022-10-19T07:13:30.254Z,498.7
2022-10-19T07:14:31.907Z,498.9
2022-10-19T07:15:33.466Z,498.9
2022-10-19T07:16:35.093Z,498.6
2022-10-19T07:17:37.443Z,498.8
2022-10-19T07:18:39.203Z,498.9
2022-10-19T07:19:40.749Z,498.8
2022-10-19T07:20:42.355Z,498.8
2022-10-19T07:21:43.937Z,498.8
2022-10-19T07:22:45.485Z,499.1
2022-10-19T07:23:47.049Z,498.8
2022-10-19T07:24:48.587Z,499.3
2022-10-19T07:25:50.131Z,499.4
2022-10-19T07:26:51.666Z,499.2
2022-10-19T07:27:53.217Z,499.6
2022-10-19T07:28:54.824Z,499.5
2022-10-19T07:29:56.469Z,499.6
2022-10-19T07:30:58.025Z,499.4
2022-10-19T07:31:59.644Z,499.8
2022-10-19T07:33:01.202Z,499.5
2022-10-19T07:34:02.775Z,499.7
2022-10-19T07:35:04.318Z,500.1
2022-10-19T07:36:05.900Z,500.2
2022-10-19T07:37:07.492Z,500
2022-10-19T07:38:09.032Z,500.1
2022-10-19T07:39:10.545Z,500.3
2022-10-19T07:40:12.104Z,500.4
2022-10-19T07:41:13.644Z,500.2
2022-10-19T07:42:15.580Z,500.3
2022-10-19T07:43:17.137Z,500.8
2022-10-19T07:44:18.682Z,500.7
2022-10-19T07:45:20.356Z,501
2022-10-19T07:46:21.973Z,500.8
2022-10-19T07:47:23.715Z,501.2
2022-10-19T07:48:25.276Z,501.2
2022-10-19T07:49:26.807Z,501.2
2022-10-19T07:50:28.366Z,501.4
2022-10-19T07:51:29.958Z,501.6
2022-10-19T07:52:37.567Z,501.8
2022-10-19T07:53:39.143Z,501.9
2022-10-19T07:54:40.677Z,502
2022-10-19T07:55:42.220Z,502.3
2022-10-19T07:56:43.766Z,502.2
2022-10-19T07:57:47.464Z,502.3
2022-10-19T07:58:49.023Z,502.6
2022-10-19T07:59:50.569Z,503.1
2022-10-19T08:00:52.288Z,502.9
2022-10-19T08:01:54.336Z,502.9
2022-10-19T08:05:02.919Z,503
2022-10-19T08:06:05.526Z,503.6
2022-10-19T08:07:07.075Z,504
2022-10-19T08:08:08.612Z,503.7
2022-10-19T08:09:54.366Z,503.4
2022-10-19T08:10:56.091Z,503.7
2022-10-19T08:11:57.715Z,503.6
2022-10-19T08:12:59.254Z,503.5
2022-10-19T08:14:00.792Z,503.3
2022-10-19T08:15:02.353Z,503.4
2022-10-19T08:16:04.055Z,503.4
2022-10-19T08:17:05.678Z,503.2
2022-10-19T08:18:07.275Z,503.4
2022-10-19T08:19:08.822Z,503.7
2022-10-19T08:20:10.395Z,503.6
2022-10-19T08:21:11.940Z,503.8
2022-10-19T08:22:13.563Z,503.7
2022-10-19T08:23:15.121Z,503.6
2022-10-19T08:24:16.683Z,503.5
2022-10-19T08:25:18.233Z,503.7
2022-10-19T08:26:19.823Z,503.7
2022-10-19T08:27:21.419Z,503.9
2022-10-19T08:28:23.035Z,504.2
2022-10-19T08:29:32.273Z,504.1
2022-10-19T08:30:34.425Z,504.2
2022-10-19T08:31:36.205Z,504.2
2022-10-19T08:32:37.789Z,504.3
2022-10-19T08:33:39.326Z,504.3
2022-10-19T08:34:40.918Z,504.7
2022-10-19T08:35:42.484Z,504.5
2022-10-19T08:36:44.616Z,504.5
2022-10-19T08:37:48.001Z,504.5
2022-10-19T08:38:49.853Z,504.8
2022-10-19T08:39:51.382Z,504.9
2022-10-19T08:40:52.959Z,504.7
2022-10-19T08:41:54.528Z,505.1
2022-10-19T08:42:56.148Z,505.4
2022-10-19T08:43:57.904Z,505.3
2022-10-19T08:44:59.453Z,505.7
2022-10-19T08:46:01.007Z,505.8
2022-10-19T08:47:07.726Z,505.9
2022-10-19T08:48:09.478Z,505.9
2022-10-19T08:49:11.070Z,505.9
2022-10-19T08:50:12.750Z,505.8
2022-10-19T08:51:14.364Z,506.3
2022-10-19T08:52:15.932Z,505.8
2022-10-19T08:53:17.534Z,505.8
2022-10-19T08:54:19.067Z,506.3
2022-10-19T08:55:21.215Z,506.5
2022-10-19T08:56:52.380Z,506.5
2022-10-19T08:57:53.931Z,506.6
2022-10-19T08:58:55.533Z,506.6
2022-10-19T08:59:57.114Z,506.5
2022-10-19T09:00:58.693Z,506.7
2022-10-19T09:02:00.381Z,506.7
2022-10-19T09:03:02.036Z,506.5
2022-10-19T09:04:03.604Z,506.9
2022-10-19T09:05:05.179Z,506.7
2022-10-19T09:06:06.777Z,506.9
2022-10-19T09:07:08.547Z,506.8
2022-10-19T09:08:18.097Z,506.8
2022-10-19T09:09:19.682Z,506.9
2022-10-19T09:10:21.257Z,507.1
2022-10-19T09:11:22.932Z,507.3
2022-10-19T09:12:24.642Z,507.3
2022-10-19T09:14:05.803Z,507.5
2022-10-19T09:15:07.678Z,507.9
2022-10-19T09:16:09.209Z,507.8
2022-10-19T09:17:10.769Z,508
2022-10-19T09:18:12.490Z,508.1
2022-10-19T09:19:14.116Z,507.8
2022-10-19T09:20:15.666Z,507.9
2022-10-19T09:21:17.223Z,508.1
2022-10-19T09:22:18.892Z,508.4
2022-10-19T09:23:20.447Z,508.4
2022-10-19T09:24:21.998Z,508.4
2022-10-19T09:25:23.535Z,508.2
2022-10-19T09:26:25.178Z,508.8
2022-10-19T09:27:26.744Z,508.6
2022-10-19T09:28:40.457Z,508.5
2022-10-19T09:29:42.045Z,508.4
2022-10-19T09:30:43.587Z,508.6
2022-10-19T09:31:45.629Z,508.3
2022-10-19T09:32:47.243Z,508.7
2022-10-19T09:33:48.925Z,508.2
2022-10-19T09:34:50.512Z,508.1
2022-10-19T09:35:52.070Z,508.3
2022-10-19T09:36:53.699Z,508.1
2022-10-19T09:37:55.268Z,508.1
2022-10-19T09:38:56.936Z,508.4
2022-10-19T09:39:58.474Z,508.3
2022-10-19T09:41:00.162Z,508.3
2022-10-19T09:42:01.742Z,507.9
2022-10-19T09:43:03.429Z,507.8
2022-10-19T09:44:05.408Z,507.9
2022-10-19T09:45:07.015Z,508.1
2022-10-19T09:46:27.166Z,507.8
2022-10-19T09:47:28.746Z,508.7
2022-10-19T09:48:30.348Z,507.9
2022-10-19T09:49:32.052Z,508.2
2022-10-19T09:50:33.641Z,508.1
2022-10-19T09:51:35.274Z,508.1
2022-10-19T09:52:39.586Z,507.8
2022-10-19T09:53:41.194Z,508.2
2022-10-19T09:54:42.749Z,507.9
2022-10-19T09:55:44.664Z,508.1
2022-10-19T09:56:46.213Z,508.4
2022-10-19T09:57:47.755Z,508.1
2022-10-19T09:58:49.328Z,508.2
2022-10-19T09:59:50.909Z,508.4
2022-10-19T10:00:52.509Z,508.8
2022-10-19T10:01:54.747Z,508.3
2022-10-19T10:02:56.556Z,508.4
2022-10-19T10:03:58.236Z,508.8
2022-10-19T10:05:00.149Z,508.5
2022-10-19T10:06:01.706Z,509.5
2022-10-19T10:07:03.253Z,509
2022-10-19T10:08:04.781Z,509.4
2022-10-19T10:09:06.567Z,509.3
2022-10-19T10:10:08.194Z,509.7
2022-10-19T10:11:09.770Z,509.4
2022-10-19T10:12:11.476Z,509.6
2022-10-19T10:13:13.075Z,509.9
2022-10-19T10:14:14.655Z,509.8
2022-10-19T10:15:16.221Z,509.7
2022-10-19T10:16:17.766Z,509.7
2022-10-19T10:17:19.337Z,510.3
2022-10-19T10:18:20.935Z,510.4
2022-10-19T10:19:27.614Z,510.8
2022-10-19T10:20:29.262Z,511.1
2022-10-19T10:21:30.813Z,511
2022-10-19T10:22:34.036Z,511.2
2022-10-19T10:23:35.916Z,511.2
2022-10-19T10:24:37.457Z,512
2022-10-19T10:25:38.991Z,512
2022-10-19T10:26:40.566Z,512.4
2022-10-19T10:27:42.115Z,512.6
2022-10-19T10:28:43.757Z,512.9
2022-10-19T10:29:45.425Z,512.5
2022-10-19T10:30:46.978Z,513.1
2022-10-19T10:31:48.549Z,512.9
2022-10-19T10:32:50.382Z,513.4
2022-10-19T10:35:02.121Z,513.3
2022-10-19T10:36:03.775Z,513.9
2022-10-19T10:37:05.319Z,513.5
2022-10-19T10:38:06.914Z,514.1
2022-10-19T10:39:08.489Z,513.9
2022-10-19T10:40:10.040Z,514.4
2022-10-19T10:41:11.586Z,514.8
2022-10-19T10:42:13.140Z,515
2022-10-19T10:43:14.746Z,514.9
2022-10-19T10:44:16.287Z,515.3
2022-10-19T10:45:17.830Z,515.2
2022-10-19T10:46:19.502Z,515.4
2022-10-19T10:47:21.150Z,515.5
2022-10-19T10:48:22.827Z,515.8
2022-10-19T10:49:27.259Z,516.1
2022-10-19T10:50:28.890Z,516.3
2022-10-19T10:51:30.580Z,516.1
2022-10-19T10:52:34.207Z,516.3
2022-10-19T10:53:35.810Z,516.3
2022-10-19T10:54:37.414Z,517.1
2022-10-19T10:55:38.981Z,517.1
2022-10-19T10:56:40.520Z,516.9
2022-10-19T10:57:42.113Z,517.2
2022-10-19T10:58:43.677Z,517.5
2022-10-19T10:59:46.196Z,517.7
2022-10-19T11:00:47.798Z,517.7
2022-10-19T11:01:49.775Z,517.6
2022-10-19T11:02:51.602Z,518.1
2022-10-19T11:03:53.171Z,518.4
2022-10-19T11:04:54.776Z,518.5
2022-10-19T11:05:56.333Z,518.5
2022-10-19T11:06:57.974Z,518.4
2022-10-19T11:07:59.599Z,518.5
2022-10-19T11:09:01.650Z,518.3
2022-10-19T11:10:03.241Z,518.5
2022-10-19T11:11:05.132Z,518.6
2022-10-19T11:12:06.683Z,518.3
2022-10-19T11:13:08.225Z,518.7
2022-10-19T11:14:09.794Z,518.9
2022-10-19T11:15:11.331Z,518.9
2022-10-19T11:16:12.958Z,519.2
2022-10-19T11:17:14.511Z,519.5
2022-10-19T11:18:16.069Z,519.4
2022-10-19T11:19:17.667Z,519.8
2022-10-19T11:20:19.347Z,520.3
2022-10-19T11:21:20.896Z,520.3
2022-10-19T11:22:27.578Z,520.5
2022-10-19T11:23:29.146Z,520
2022-10-19T11:25:32.404Z,520.8
2022-10-19T11:26:34.049Z,520.7
2022-10-19T11:27:37.359Z,520.9
2022-10-19T11:28:39.216Z,521
2022-10-19T11:29:40.761Z,521
2022-10-19T11:30:50.633Z,521
2022-10-19T11:31:52.652Z,520.6
2022-10-19T11:32:54.185Z,520.9
2022-10-19T11:33:55.849Z,521
2022-10-19T11:34:57.446Z,521.3
2022-10-19T11:35:59.003Z,521.1
2022-10-19T11:37:00.584Z,521.4
2022-10-19T11:38:30.184Z,521.4
2022-10-19T11:39:31.948Z,521.4
2022-10-19T11:40:33.534Z,521.8
2022-10-19T11:41:35.084Z,522
2022-10-19T11:42:36.993Z,522.5
2022-10-19T11:43:38.572Z,521.7
2022-10-19T11:44:40.376Z,521.5
2022-10-19T11:45:41.994Z,521.7
2022-10-19T11:46:43.574Z,521.8
2022-10-19T11:47:45.121Z,522.1
2022-10-19T11:48:46.755Z,522
2022-10-19T11:49:48.321Z,522.4
2022-10-19T11:51:21.555Z,522.7
2022-10-19T11:52:23.496Z,522.7
2022-10-19T11:53:25.257Z,523.1
2022-10-19T11:54:26.859Z,523.4
2022-10-19T11:55:28.413Z,523.4
2022-10-19T11:57:11.312Z,523.5
2022-10-19T11:58:13.197Z,523.8
2022-10-19T11:59:14.956Z,523.8
2022-10-19T12:00:40.687Z,524.4
2022-10-19T12:01:42.715Z,524.4
2022-10-19T12:02:44.805Z,524.9
2022-10-19T12:03:46.349Z,524.8
2022-10-19T12:04:47.895Z,524.8
2022-10-19T12:05:49.475Z,524.7
2022-10-19T12:06:51.024Z,524.5
2022-10-19T12:07:52.579Z,524.9
2022-10-19T12:08:57.165Z,524.5
2022-10-19T12:09:58.826Z,524.9
2022-10-19T12:11:00.650Z,525.1
2022-10-19T12:12:02.191Z,524.9
2022-10-19T12:13:03.744Z,525.7
2022-10-19T12:14:05.293Z,525.6
2022-10-19T12:15:06.863Z,525.6
2022-10-19T12:16:08.428Z,526
2022-10-19T12:17:10.367Z,525.7
2022-10-19T12:18:11.960Z,525.9
2022-10-19T12:19:13.503Z,525.6
2022-10-19T12:20:20.353Z,525.8
2022-10-19T12:21:21.957Z,525.7
2022-10-19T12:22:23.520Z,525.8
2022-10-19T12:23:25.063Z,525.8
2022-10-19T12:24:26.705Z,525.9
2022-10-19T12:25:28.286Z,526
2022-10-19T12:26:29.884Z,525.6
2022-10-19T12:27:32.321Z,526.5
2022-10-19T12:28:34.079Z,526.4
2022-10-19T12:29:35.664Z,526.3
2022-10-19T12:30:37.247Z,526.4
2022-10-19T12:31:38.808Z,526.5
2022-10-19T12:32:40.377Z,526.4
2022-10-19T12:33:42.002Z,526.4
2022-10-19T12:34:43.572Z,526.4
2022-10-19T12:35:45.132Z,526.6
2022-10-19T12:36:46.718Z,526.5
2022-10-19T12:37:48.319Z,526.3
2022-10-19T12:39:00.982Z,526.5
2022-10-19T12:40:02.646Z,526.9
2022-10-19T12:41:04.249Z,526.7
2022-10-19T12:42:05.796Z,526.4
2022-10-19T12:43:07.409Z,526.7
2022-10-19T12:44:08.966Z,526.7
2022-10-19T12:45:10.519Z,526.9
2022-10-19T12:46:12.076Z,527
2022-10-19T12:47:13.668Z,526.9
2022-10-19T12:48:15.235Z,527
2022-10-19T12:49:17.037Z,526.9
2022-10-19T12:50:21.614Z,526.6
2022-10-19T12:51:23.163Z,526.8
2022-10-19T12:52:24.787Z,526.9
2022-10-19T12:54:27.883Z,527
2022-10-19T12:55:29.641Z,526.6
2022-10-19T12:56:31.383Z,527.3
2022-10-19T12:57:32.951Z,527.1
2022-10-19T12:58:34.610Z,526.9
2022-10-19T12:59:36.252Z,526.7
2022-10-19T13:00:38.467Z,527.1
2022-10-19T13:01:40.141Z,527.3
2022-10-19T13:02:42.317Z,527.1
2022-10-19T13:03:43.932Z,527.2
2022-10-19T13:04:45.628Z,527.3
2022-10-19T13:05:47.174Z,526.8
2022-10-19T13:06:48.774Z,526.7
2022-10-19T13:08:53.677Z,527.6
2022-10-19T13:09:55.244Z,527
2022-10-19T13:10:56.835Z,527.2
2022-10-19T13:11:58.492Z,526.9
2022-10-19T13:13:00.036Z,526.7
2022-10-19T13:14:01.604Z,526.5
2022-10-19T13:15:03.268Z,526.6
2022-10-19T13:16:04.843Z,527.1
2022-10-19T13:17:06.454Z,527.1
2022-10-19T13:18:08.020Z,527
2022-10-19T13:19:09.604Z,526.8
2022-10-19T13:20:11.312Z,527.3
2022-10-19T13:21:13.046Z,527
2022-10-19T13:22:14.605Z,527
2022-10-19T13:23:16.141Z,527
2022-10-19T13:24:17.736Z,527.2
2022-10-19T13:25:19.700Z,527.5
2022-10-19T13:26:21.287Z,527.6
2022-10-19T13:27:22.888Z,527.9
2022-10-19T13:28:24.529Z,527.8
2022-10-19T13:29:26.395Z,528.1
2022-10-19T13:30:28.402Z,528.3
2022-10-19T13:31:30.008Z,528.1
2022-10-19T13:32:32.984Z,528